createdAt,value
2017-06-27T00:00:02.651Z,1013.8
2017-06-27T00:01:01.750Z,1013.8
2017-06-27T00:02:00.827Z,1013.8
2017-06-27T00:02:59.969Z,1013.8
2017-06-27T00:03:59.177Z,1013.8
2017-06-27T00:04:58.378Z,1013.8
2017-06-27T00:05:57.981Z,1013.8
2017-06-27T00:06:57.179Z,1013.8
2017-06-27T00:07:56.380Z,1013.8
2017-06-27T00:08:55.581Z,1013.8
2017-06-27T00:09:55.057Z,1013.8
2017-06-27T00:10:54.133Z,1013.8
2017-06-27T00:11:53.597Z,1013.9
2017-06-27T00:12:52.796Z,1013.8
2017-06-27T00:13:51.998Z,1013.8
2017-06-27T00:14:51.081Z,1013.8
2017-06-27T00:15:50.169Z,1013.8
2017-06-27T00:16:49.910Z,1013.8
2017-06-27T00:17:49.230Z,1013.8
2017-06-27T00:18:48.321Z,1013.8
2017-06-27T00:19:47.469Z,1013.8
2017-06-27T00:20:46.557Z,1013.7
2017-06-27T00:21:46.146Z,1013.8
2017-06-27T00:22:45.350Z,1013.8
2017-06-27T00:23:44.803Z,1013.8
2017-06-27T00:24:43.494Z,1013.8
2017-06-27T00:25:43.183Z,1013.8
2017-06-27T00:26:42.392Z,1013.8
2017-06-27T00:27:41.480Z,1013.8
2017-06-27T00:28:40.682Z,1013.8
2017-06-27T00:29:40.118Z,1013.8
2017-06-27T00:30:39.076Z,1013.8
2017-06-27T00:31:38.676Z,1013.8
2017-06-27T00:32:37.880Z,1013.7
2017-06-27T00:33:37.088Z,1013.7
2017-06-27T00:34:36.166Z,1013.7
2017-06-27T00:35:36.002Z,1013.7
2017-06-27T00:36:34.696Z,1013.7
2017-06-27T00:37:33.878Z,1013.7
2017-06-27T00:38:33.081Z,1013.7
2017-06-27T00:39:32.341Z,1013.6
2017-06-27T00:40:31.546Z,1013.6
2017-06-27T00:41:31.510Z,1013.7
2017-06-27T00:42:30.097Z,1013.6
2017-06-27T00:43:29.303Z,1013.6
2017-06-27T00:44:28.888Z,1013.6
2017-06-27T00:45:28.107Z,1013.7
2017-06-27T00:46:27.312Z,1013.7
2017-06-27T00:47:26.769Z,1013.7
2017-06-27T00:48:25.963Z,1013.7
2017-06-27T00:49:25.190Z,1013.7
2017-06-27T00:50:24.536Z,1013.7
2017-06-27T00:52:22.993Z,1013.7
2017-06-27T00:53:22.445Z,1013.7
2017-06-27T00:54:21.154Z,1013.7
2017-06-27T00:55:20.343Z,1013.7
2017-06-27T00:56:20.043Z,1013.6
2017-06-27T00:57:19.050Z,1013.6
2017-06-27T00:58:18.127Z,1013.6
2017-06-27T00:59:17.652Z,1013.6
2017-06-27T01:00:16.848Z,1013.7
2017-06-27T01:01:16.048Z,1013.7
2017-06-27T01:02:15.133Z,1013.7
2017-06-27T01:04:13.612Z,1013.7
2017-06-27T01:05:13.065Z,1013.7
2017-06-27T01:06:12.150Z,1013.7
2017-06-27T01:07:11.384Z,1013.8
2017-06-27T01:08:10.571Z,1013.8
2017-06-27T01:09:10.152Z,1013.8
2017-06-27T01:10:09.237Z,1013.8
2017-06-27T01:11:08.698Z,1013.8
2017-06-27T01:12:07.967Z,1013.8
2017-06-27T01:13:07.236Z,1013.8
2017-06-27T01:14:06.434Z,1013.8
2017-06-27T01:15:05.630Z,1013.8
2017-06-27T01:16:04.826Z,1013.7
2017-06-27T01:16:35.465Z,1013.7
2017-06-27T01:17:05.481Z,1013.7
2017-06-27T01:17:35.988Z,1013.7
2017-06-27T01:18:06.415Z,1013.8
2017-06-27T01:18:36.935Z,1013.8
2017-06-27T01:20:01.677Z,1013.8
2017-06-27T01:21:01.256Z,1013.8
2017-06-27T01:22:00.472Z,1013.8
2017-06-27T01:22:59.563Z,1013.8
2017-06-27T01:23:58.758Z,1013.8
2017-06-27T01:24:57.962Z,1013.9
2017-06-27T01:25:57.220Z,1013.9
2017-06-27T01:26:56.425Z,1013.8
2017-06-27T01:27:55.761Z,1013.9
2017-06-27T01:28:54.842Z,1013.8
2017-06-27T01:29:54.316Z,1013.8
2017-06-27T01:31:52.903Z,1013.8
2017-06-27T01:32:52.105Z,1013.8
2017-06-27T01:33:51.559Z,1013.7
2017-06-27T01:35:49.645Z,1013.7
2017-06-27T01:36:48.852Z,1013.7
2017-06-27T01:37:48.068Z,1013.6
2017-06-27T01:38:47.277Z,1013.7
2017-06-27T01:39:46.713Z,1013.7
2017-06-27T01:40:45.916Z,1013.7
2017-06-27T01:41:45.128Z,1013.7
2017-06-27T01:42:44.224Z,1013.7
2017-06-27T01:43:43.422Z,1013.7
2017-06-27T01:44:43.016Z,1013.7
2017-06-27T01:45:42.359Z,1013.7
2017-06-27T01:46:41.552Z,1013.7
2017-06-27T01:47:12.064Z,1013.7
2017-06-27T01:48:39.836Z,1013.7
2017-06-27T01:49:38.915Z,1013.7
2017-06-27T01:50:38.492Z,1013.7
2017-06-27T01:51:37.949Z,1013.7
2017-06-27T01:52:37.022Z,1013.7
2017-06-27T01:54:35.364Z,1013.7
2017-06-27T01:55:34.571Z,1013.7
2017-06-27T01:56:33.768Z,1013.7
2017-06-27T01:57:33.287Z,1013.7
2017-06-27T01:58:32.489Z,1013.7
2017-06-27T01:59:31.570Z,1013.7
2017-06-27T02:00:30.766Z,1013.8
2017-06-27T02:01:30.052Z,1013.7
2017-06-27T02:02:29.192Z,1013.7
2017-06-27T02:03:28.601Z,1013.7
2017-06-27T02:04:27.789Z,1013.7
2017-06-27T02:05:26.981Z,1013.6
2017-06-27T02:06:26.235Z,1013.6
2017-06-27T02:07:25.434Z,1013.6
2017-06-27T02:08:24.646Z,1013.6
2017-06-27T02:09:24.294Z,1013.6
2017-06-27T02:09:54.305Z,1013.6
2017-06-27T02:10:24.693Z,1013.6
2017-06-27T02:11:22.259Z,1013.6
2017-06-27T02:12:21.515Z,1013.6
2017-06-27T02:13:20.727Z,1013.6
2017-06-27T02:15:19.563Z,1013.6
2017-06-27T02:16:18.524Z,1013.6
2017-06-27T02:17:17.721Z,1013.6
2017-06-27T02:18:16.917Z,1013.7
2017-06-27T02:19:16.120Z,1013.6
2017-06-27T02:20:15.705Z,1013.6
2017-06-27T02:21:15.164Z,1013.6
2017-06-27T02:22:13.854Z,1013.6
2017-06-27T02:23:13.064Z,1013.6
2017-06-27T02:24:12.272Z,1013.5
2017-06-27T02:25:11.477Z,1013.5
2017-06-27T02:26:10.670Z,1013.5
2017-06-27T02:27:10.119Z,1013.5
2017-06-27T02:28:09.324Z,1013.4
2017-06-27T02:28:39.833Z,1013.4
2017-06-27T02:30:07.721Z,1013.5
2017-06-27T02:31:06.964Z,1013.5
2017-06-27T02:32:06.230Z,1013.5
2017-06-27T02:33:05.690Z,1013.6
2017-06-27T02:34:04.886Z,1013.5
2017-06-27T02:35:03.857Z,1013.5
2017-06-27T02:36:03.050Z,1013.5
2017-06-27T02:37:02.636Z,1013.5
2017-06-27T02:38:01.601Z,1013.5
2017-06-27T02:39:01.065Z,1013.5
2017-06-27T02:40:00.256Z,1013.5
2017-06-27T02:40:59.457Z,1013.5
2017-06-27T02:41:58.664Z,1013.6
2017-06-27T02:43:57.254Z,1013.6
2017-06-27T02:44:56.604Z,1013.6
2017-06-27T02:45:55.316Z,1013.6
2017-06-27T02:46:54.878Z,1013.6
2017-06-27T02:47:53.866Z,1013.6
2017-06-27T02:48:53.071Z,1013.6
2017-06-27T02:49:52.691Z,1013.6
2017-06-27T02:50:52.157Z,1013.6
2017-06-27T02:51:50.864Z,1013.6
2017-06-27T02:52:50.077Z,1013.6
2017-06-27T02:53:49.182Z,1013.5
2017-06-27T02:54:48.781Z,1013.6
2017-06-27T02:55:47.994Z,1013.6
2017-06-27T02:56:47.493Z,1013.6
2017-06-27T02:57:46.205Z,1013.6
2017-06-27T02:58:45.301Z,1013.6
2017-06-27T02:59:44.519Z,1013.6
2017-06-27T03:00:43.823Z,1013.6
2017-06-27T03:01:42.945Z,1013.6
2017-06-27T03:02:42.901Z,1013.6
2017-06-27T03:04:41.030Z,1013.6
2017-06-27T03:05:40.254Z,1013.6
2017-06-27T03:06:39.468Z,1013.6
2017-06-27T03:07:38.628Z,1013.6
2017-06-27T03:08:38.078Z,1013.6
2017-06-27T03:09:37.159Z,1013.6
2017-06-27T03:10:36.379Z,1013.6
2017-06-27T03:11:35.590Z,1013.6
2017-06-27T03:12:34.793Z,1013.6
2017-06-27T03:13:34.014Z,1013.6
2017-06-27T03:15:32.390Z,1013.7
2017-06-27T03:16:31.690Z,1013.7
2017-06-27T03:17:30.775Z,1013.7
2017-06-27T03:18:29.862Z,1013.6
2017-06-27T03:19:29.080Z,1013.6
2017-06-27T03:20:28.302Z,1013.6
2017-06-27T03:21:27.772Z,1013.6
2017-06-27T03:22:26.989Z,1013.6
2017-06-27T03:23:26.209Z,1013.6
2017-06-27T03:24:25.432Z,1013.6
2017-06-27T03:25:24.641Z,1013.7
2017-06-27T03:26:23.727Z,1013.7
2017-06-27T03:27:23.192Z,1013.7
2017-06-27T03:28:22.395Z,1013.7
2017-06-27T03:29:21.603Z,1013.6
2017-06-27T03:30:20.816Z,1013.7
2017-06-27T03:31:19.796Z,1013.7
2017-06-27T03:32:18.996Z,1013.7
2017-06-27T03:33:18.451Z,1013.7
2017-06-27T03:34:17.659Z,1013.7
2017-06-27T03:34:48.180Z,1013.7
2017-06-27T03:35:18.704Z,1013.7
2017-06-27T03:35:49.237Z,1013.7
2017-06-27T03:37:15.008Z,1013.7
2017-06-27T03:38:14.723Z,1013.7
2017-06-27T03:39:14.186Z,1013.7
2017-06-27T03:40:12.763Z,1013.7
2017-06-27T03:41:11.971Z,1013.6
2017-06-27T03:42:11.180Z,1013.6
2017-06-27T03:43:10.394Z,1013.5
2017-06-27T03:44:09.610Z,1013.5
2017-06-27T03:45:09.160Z,1013.5
2017-06-27T03:46:08.370Z,1013.6
2017-06-27T03:47:07.592Z,1013.6
2017-06-27T03:48:06.845Z,1013.6
2017-06-27T03:49:05.939Z,1013.6
2017-06-27T03:50:05.158Z,1013.6
2017-06-27T03:51:04.622Z,1013.6
2017-06-27T03:52:03.845Z,1013.6
2017-06-27T03:53:02.644Z,1013.6
2017-06-27T03:54:02.248Z,1013.6
2017-06-27T03:55:01.331Z,1013.6
2017-06-27T03:56:00.729Z,1013.6
2017-06-27T03:57:59.070Z,1013.6
2017-06-27T03:58:58.175Z,1013.6
2017-06-27T03:59:57.452Z,1013.6
2017-06-27T04:00:56.665Z,1013.5
2017-06-27T04:01:55.769Z,1013.5
2017-06-27T04:02:54.977Z,1013.5
2017-06-27T04:03:54.317Z,1013.6
2017-06-27T04:04:53.678Z,1013.6
2017-06-27T04:05:52.885Z,1013.6
2017-06-27T04:06:52.100Z,1013.6
2017-06-27T04:07:51.371Z,1013.5
2017-06-27T04:08:50.223Z,1013.6
2017-06-27T04:09:50.075Z,1013.6
2017-06-27T04:10:48.786Z,1013.5
2017-06-27T04:11:48.058Z,1013.5
2017-06-27T04:12:47.271Z,1013.5
2017-06-27T04:14:45.886Z,1013.5
2017-06-27T04:15:45.343Z,1013.6
2017-06-27T04:16:44.071Z,1013.6
2017-06-27T04:17:43.286Z,1013.6
2017-06-27T04:18:42.784Z,1013.5
2017-06-27T04:20:41.176Z,1013.5
2017-06-27T04:21:40.508Z,1013.5
2017-06-27T04:22:39.605Z,1013.5
2017-06-27T04:23:38.967Z,1013.5
2017-06-27T04:24:37.938Z,1013.5
2017-06-27T04:25:37.541Z,1013.6
2017-06-27T04:26:36.630Z,1013.6
2017-06-27T04:27:36.095Z,1013.6
2017-06-27T04:28:35.225Z,1013.6
2017-06-27T04:29:34.309Z,1013.6
2017-06-27T04:30:33.559Z,1013.6
2017-06-27T04:31:32.773Z,1013.6
2017-06-27T04:32:31.976Z,1013.6
2017-06-27T04:33:31.436Z,1013.6
2017-06-27T04:34:30.163Z,1013.6
2017-06-27T04:35:29.376Z,1013.6
2017-06-27T04:36:29.083Z,1013.6
2017-06-27T04:37:28.288Z,1013.6
2017-06-27T04:38:27.271Z,1013.6
2017-06-27T04:39:26.611Z,1013.7
2017-06-27T04:40:25.830Z,1013.7
2017-06-27T04:41:24.809Z,1013.7
2017-06-27T04:42:24.023Z,1013.6
2017-06-27T04:43:23.629Z,1013.7
2017-06-27T04:44:22.833Z,1013.6
2017-06-27T04:46:21.185Z,1013.7
2017-06-27T04:47:20.403Z,1013.6
2017-06-27T04:48:19.608Z,1013.7
2017-06-27T04:49:18.707Z,1013.7
2017-06-27T04:50:18.005Z,1013.7
2017-06-27T04:51:17.206Z,1013.7
2017-06-27T04:52:16.725Z,1013.8
2017-06-27T04:53:16.010Z,1013.7
2017-06-27T04:54:15.271Z,1013.7
2017-06-27T04:55:14.477Z,1013.7
2017-06-27T04:56:13.700Z,1013.8
2017-06-27T04:57:12.906Z,1013.7
2017-06-27T04:58:12.261Z,1013.8
2017-06-27T04:59:10.972Z,1013.8
2017-06-27T05:00:10.467Z,1013.8
2017-06-27T05:01:09.676Z,1013.8
2017-06-27T05:02:08.889Z,1013.7
2017-06-27T05:03:08.090Z,1013.7
2017-06-27T05:04:07.558Z,1013.6
2017-06-27T05:05:06.649Z,1013.6
2017-06-27T05:06:05.635Z,1013.6
2017-06-27T05:07:05.344Z,1013.6
2017-06-27T05:08:04.116Z,1013.6
2017-06-27T05:09:03.335Z,1013.5
2017-06-27T05:10:02.827Z,1013.5
2017-06-27T05:11:01.921Z,1013.5
2017-06-27T05:12:01.130Z,1013.5
2017-06-27T05:13:59.872Z,1013.5
2017-06-27T05:14:59.025Z,1013.6
2017-06-27T05:15:58.491Z,1013.6
2017-06-27T05:16:57.714Z,1013.6
2017-06-27T05:17:56.887Z,1013.5
2017-06-27T05:18:56.047Z,1013.5
2017-06-27T05:19:55.267Z,1013.5
2017-06-27T05:20:54.236Z,1013.5
2017-06-27T05:21:53.703Z,1013.5
2017-06-27T05:22:52.934Z,1013.5
2017-06-27T05:24:51.535Z,1013.5
2017-06-27T05:25:50.759Z,1013.5
2017-06-27T05:26:49.850Z,1013.6
2017-06-27T05:27:49.382Z,1013.5
2017-06-27T05:28:48.472Z,1013.5
2017-06-27T05:29:47.681Z,1013.5
2017-06-27T05:30:46.777Z,1013.5
2017-06-27T05:31:45.986Z,1013.5
2017-06-27T05:32:45.589Z,1013.6
2017-06-27T05:33:45.053Z,1013.6
2017-06-27T05:34:43.781Z,1013.6
2017-06-27T05:35:43.015Z,1013.5
2017-06-27T05:36:42.123Z,1013.5
2017-06-27T05:37:41.330Z,1013.6
2017-06-27T05:38:40.581Z,1013.5
2017-06-27T05:39:40.499Z,1013.6
2017-06-27T05:40:39.192Z,1013.6
2017-06-27T05:41:38.404Z,1013.6
2017-06-27T05:42:37.782Z,1013.6
2017-06-27T05:43:36.999Z,1013.5
2017-06-27T05:44:36.220Z,1013.5
2017-06-27T05:45:35.693Z,1013.6
2017-06-27T05:46:34.905Z,1013.7
2017-06-27T05:47:34.112Z,1013.7
2017-06-27T05:48:33.321Z,1013.6
2017-06-27T05:49:32.541Z,1013.6
2017-06-27T05:50:31.637Z,1013.6
2017-06-27T05:51:31.096Z,1013.6
2017-06-27T05:52:30.323Z,1013.5
2017-06-27T05:53:29.525Z,1013.5
2017-06-27T05:54:28.727Z,1013.6
2017-06-27T05:55:27.937Z,1013.5
2017-06-27T05:56:27.163Z,1013.5
2017-06-27T05:57:26.623Z,1013.5
2017-06-27T05:58:25.843Z,1013.6
2017-06-27T05:59:25.055Z,1013.6
2017-06-27T06:00:24.289Z,1013.5
2017-06-27T06:01:23.499Z,1013.6
2017-06-27T06:02:22.705Z,1013.5
2017-06-27T06:03:22.041Z,1013.5
2017-06-27T06:04:21.252Z,1013.5
2017-06-27T06:05:20.457Z,1013.6
2017-06-27T06:06:19.678Z,1013.5
2017-06-27T06:07:18.945Z,1013.5
2017-06-27T06:08:18.243Z,1013.5
2017-06-27T06:09:17.975Z,1013.5
2017-06-27T06:10:16.689Z,1013.5
2017-06-27T06:11:15.897Z,1013.4
2017-06-27T06:12:15.488Z,1013.5
2017-06-27T06:13:14.461Z,1013.5
2017-06-27T06:14:13.811Z,1013.5
2017-06-27T06:15:13.343Z,1013.5
2017-06-27T06:17:11.839Z,1013.5
2017-06-27T06:18:11.052Z,1013.5
2017-06-27T06:19:10.177Z,1013.6
2017-06-27T06:20:09.272Z,1013.6
2017-06-27T06:21:09.127Z,1013.6
2017-06-27T06:22:07.726Z,1013.6
2017-06-27T06:23:07.314Z,1013.7
2017-06-27T06:24:06.525Z,1013.6
2017-06-27T06:25:05.621Z,1013.6
2017-06-27T06:26:05.116Z,1013.6
2017-06-27T06:27:04.461Z,1013.6
2017-06-27T06:28:03.364Z,1013.7
2017-06-27T06:29:02.959Z,1013.7
2017-06-27T06:30:02.055Z,1013.6
2017-06-27T06:31:01.527Z,1013.6
2017-06-27T06:32:00.660Z,1013.6
2017-06-27T06:33:00.196Z,1013.7
2017-06-27T06:33:30.242Z,1013.7
2017-06-27T06:34:58.644Z,1013.6
2017-06-27T06:35:57.482Z,1013.6
2017-06-27T06:36:56.702Z,1013.5
2017-06-27T06:37:56.423Z,1013.5
2017-06-27T06:38:55.880Z,1013.5
2017-06-27T06:39:54.652Z,1013.5
2017-06-27T06:40:53.932Z,1013.5
2017-06-27T06:41:53.146Z,1013.6
2017-06-27T06:42:52.360Z,1013.6
2017-06-27T06:43:51.966Z,1013.5
2017-06-27T06:44:22.616Z,1013.5
2017-06-27T06:45:50.518Z,1013.5
2017-06-27T06:46:49.491Z,1013.6
2017-06-27T06:47:49.210Z,1013.7
2017-06-27T06:48:48.420Z,1013.6
2017-06-27T06:49:47.529Z,1013.6
2017-06-27T06:50:46.872Z,1013.6
2017-06-27T06:51:46.234Z,1013.6
2017-06-27T06:52:45.447Z,1013.6
2017-06-27T06:53:44.417Z,1013.6
2017-06-27T06:54:44.146Z,1013.6
2017-06-27T06:55:43.351Z,1013.6
2017-06-27T06:56:42.592Z,1013.7
2017-06-27T06:57:41.691Z,1013.6
2017-06-27T06:58:41.283Z,1013.6
2017-06-27T06:59:40.496Z,1013.6
2017-06-27T07:00:39.539Z,1013.6
2017-06-27T07:01:39.084Z,1013.5
2017-06-27T07:02:38.366Z,1013.5
2017-06-27T07:03:37.580Z,1013.5
2017-06-27T07:04:36.668Z,1013.5
2017-06-27T07:05:35.869Z,1013.5
2017-06-27T07:06:35.170Z,1013.4
2017-06-27T07:07:34.899Z,1013.5
2017-06-27T07:08:33.997Z,1013.5
2017-06-27T07:09:33.319Z,1013.5
2017-06-27T07:10:32.410Z,1013.4
2017-06-27T07:11:31.615Z,1013.5
2017-06-27T07:12:30.895Z,1013.5
2017-06-27T07:13:30.739Z,1013.5
2017-06-27T07:14:29.450Z,1013.6
2017-06-27T07:15:28.654Z,1013.6
2017-06-27T07:16:28.376Z,1013.6
2017-06-27T07:17:27.592Z,1013.6
2017-06-27T07:18:26.683Z,1013.5
2017-06-27T07:19:26.543Z,1013.6
2017-06-27T07:20:25.157Z,1013.5
2017-06-27T07:21:24.874Z,1013.4
2017-06-27T07:22:24.009Z,1013.5
2017-06-27T07:23:23.222Z,1013.4
2017-06-27T07:24:22.450Z,1013.4
2017-06-27T07:25:22.256Z,1013.4
2017-06-27T07:27:20.228Z,1013.4
2017-06-27T07:28:19.596Z,1013.4
2017-06-27T07:29:19.074Z,1013.5
2017-06-27T07:30:18.291Z,1013.5
2017-06-27T07:31:17.752Z,1013.4
2017-06-27T07:33:16.127Z,1013.4
2017-06-27T07:34:15.343Z,1013.4
2017-06-27T07:35:15.066Z,1013.4
2017-06-27T07:37:13.499Z,1013.5
2017-06-27T07:38:12.587Z,1013.6
2017-06-27T07:39:11.824Z,1013.6
2017-06-27T07:40:11.089Z,1013.6
2017-06-27T07:41:10.797Z,1013.6
2017-06-27T07:42:09.765Z,1013.6
2017-06-27T07:43:09.604Z,1013.6
2017-06-27T07:44:08.638Z,1013.6
2017-06-27T07:45:07.930Z,1013.6
2017-06-27T07:46:07.154Z,1013.5
2017-06-27T07:47:06.445Z,1013.6
2017-06-27T07:48:05.657Z,1013.6
2017-06-27T07:49:05.129Z,1013.6
2017-06-27T07:50:04.343Z,1013.6
2017-06-27T07:51:03.943Z,1013.6
2017-06-27T07:52:03.158Z,1013.6
2017-06-27T07:53:02.139Z,1013.6
2017-06-27T07:53:32.672Z,1013.6
2017-06-27T07:55:01.317Z,1013.6
2017-06-27T07:56:00.420Z,1013.6
2017-06-27T07:56:59.634Z,1013.6
2017-06-27T07:57:58.846Z,1013.6
2017-06-27T07:58:58.062Z,1013.6
2017-06-27T07:59:57.535Z,1013.6
2017-06-27T08:00:57.001Z,1013.6
2017-06-27T08:01:56.212Z,1013.6
2017-06-27T08:02:55.496Z,1013.6
2017-06-27T08:03:54.767Z,1013.7
2017-06-27T08:04:53.969Z,1013.7
2017-06-27T08:05:53.519Z,1013.6
2017-06-27T08:06:52.987Z,1013.6
2017-06-27T08:07:52.084Z,1013.6
2017-06-27T08:08:51.279Z,1013.6
2017-06-27T08:09:50.876Z,1013.7
2017-06-27T08:10:50.084Z,1013.7
2017-06-27T08:11:49.249Z,1013.7
2017-06-27T08:12:48.715Z,1013.7
2017-06-27T08:13:47.928Z,1013.7
2017-06-27T08:14:47.132Z,1013.7
2017-06-27T08:15:46.849Z,1013.7
2017-06-27T08:16:46.059Z,1013.7
2017-06-27T08:17:45.271Z,1013.7
2017-06-27T08:18:44.747Z,1013.7
2017-06-27T08:19:43.835Z,1013.7
2017-06-27T08:20:43.050Z,1013.7
2017-06-27T08:21:42.671Z,1013.7
2017-06-27T08:22:41.845Z,1013.6
2017-06-27T08:23:41.066Z,1013.6
2017-06-27T08:24:40.919Z,1013.6
2017-06-27T08:25:40.001Z,1013.7
2017-06-27T08:26:39.224Z,1013.7
2017-06-27T08:27:38.441Z,1013.7
2017-06-27T08:28:37.653Z,1013.7
2017-06-27T08:29:37.377Z,1013.7
2017-06-27T08:30:36.647Z,1013.7
2017-06-27T08:31:35.871Z,1013.7
2017-06-27T08:32:35.075Z,1013.6
2017-06-27T08:33:34.313Z,1013.6
2017-06-27T08:34:34.065Z,1013.6
2017-06-27T08:35:33.147Z,1013.6
2017-06-27T08:36:32.875Z,1013.6
2017-06-27T08:37:31.647Z,1013.6
2017-06-27T08:38:31.243Z,1013.6
2017-06-27T08:39:30.339Z,1013.7
2017-06-27T08:40:30.060Z,1013.6
2017-06-27T08:41:29.264Z,1013.6
2017-06-27T08:42:28.863Z,1013.7
2017-06-27T08:43:28.069Z,1013.7
2017-06-27T08:44:27.179Z,1013.7
2017-06-27T08:45:26.498Z,1013.7
2017-06-27T08:46:25.723Z,1013.7
2017-06-27T08:46:56.314Z,1013.7
2017-06-27T08:47:26.848Z,1013.6
2017-06-27T08:48:24.549Z,1013.6
2017-06-27T08:49:23.755Z,1013.6
2017-06-27T08:50:22.970Z,1013.6
2017-06-27T08:51:22.692Z,1013.6
2017-06-27T08:52:21.900Z,1013.6
2017-06-27T08:53:21.366Z,1013.6
2017-06-27T08:54:20.587Z,1013.6
2017-06-27T08:55:19.735Z,1013.6
2017-06-27T08:56:18.948Z,1013.6
2017-06-27T08:57:18.722Z,1013.6
2017-06-27T08:58:18.002Z,1013.5
2017-06-27T08:59:17.345Z,1013.6
2017-06-27T09:00:16.758Z,1013.6
2017-06-27T09:01:15.967Z,1013.6
2017-06-27T09:02:15.059Z,1013.6
2017-06-27T09:03:14.768Z,1013.6
2017-06-27T09:04:13.975Z,1013.6
2017-06-27T09:05:13.335Z,1013.6
2017-06-27T09:06:12.555Z,1013.6
2017-06-27T09:07:11.920Z,1013.6
2017-06-27T09:08:11.013Z,1013.6
2017-06-27T09:09:10.286Z,1013.6
2017-06-27T09:10:10.028Z,1013.6
2017-06-27T09:12:08.876Z,1013.6
2017-06-27T09:14:06.980Z,1013.6
2017-06-27T09:15:06.579Z,1013.6
2017-06-27T09:16:05.861Z,1013.6
2017-06-27T09:17:05.460Z,1013.6
2017-06-27T09:18:04.917Z,1013.6
2017-06-27T09:19:04.018Z,1013.6
2017-06-27T09:20:03.184Z,1013.6
2017-06-27T09:21:02.391Z,1013.6
2017-06-27T09:22:02.112Z,1013.6
2017-06-27T09:23:01.337Z,1013.6
2017-06-27T09:24:00.702Z,1013.6
2017-06-27T09:24:59.908Z,1013.6
2017-06-27T09:25:59.124Z,1013.5
2017-06-27T09:26:58.723Z,1013.5
2017-06-27T09:27:57.954Z,1013.5
2017-06-27T09:28:57.049Z,1013.5
2017-06-27T09:29:57.024Z,1013.5
2017-06-27T09:30:56.125Z,1013.5
2017-06-27T09:31:55.348Z,1013.4
2017-06-27T09:32:54.566Z,1013.5
2017-06-27T09:33:53.776Z,1013.5
2017-06-27T09:34:53.363Z,1013.4
2017-06-27T09:35:52.821Z,1013.4
2017-06-27T09:36:52.097Z,1013.4
2017-06-27T09:37:51.087Z,1013.4
2017-06-27T09:38:50.688Z,1013.4
2017-06-27T09:39:50.160Z,1013.4
2017-06-27T09:40:49.255Z,1013.4
2017-06-27T09:41:49.108Z,1013.4
2017-06-27T09:42:48.091Z,1013.4
2017-06-27T09:43:47.179Z,1013.4
2017-06-27T09:44:46.891Z,1013.4
2017-06-27T09:45:46.104Z,1013.4
2017-06-27T09:46:45.579Z,1013.4
2017-06-27T09:47:45.041Z,1013.3
2017-06-27T09:48:44.150Z,1013.3
2017-06-27T09:49:43.368Z,1013.3
2017-06-27T09:50:42.973Z,1013.3
2017-06-27T09:51:42.091Z,1013.3
2017-06-27T09:52:41.184Z,1013.3
2017-06-27T09:53:41.041Z,1013.3
2017-06-27T09:54:40.247Z,1013.3
2017-06-27T09:55:39.456Z,1013.3
2017-06-27T09:56:38.548Z,1013.2
2017-06-27T09:57:38.209Z,1013.2
2017-06-27T09:58:37.423Z,1013.2
2017-06-27T09:59:37.265Z,1013.2
2017-06-27T10:00:35.979Z,1013.2
2017-06-27T10:01:35.708Z,1013.2
2017-06-27T10:02:34.917Z,1013.1
2017-06-27T10:03:34.010Z,1013.1
2017-06-27T10:04:33.708Z,1013.1
2017-06-27T10:05:32.935Z,1013.1
2017-06-27T10:06:32.208Z,1013.1
2017-06-27T10:07:31.294Z,1013.2
2017-06-27T10:08:30.879Z,1013.2
2017-06-27T10:09:30.372Z,1013.1
2017-06-27T10:10:29.581Z,1013.1
2017-06-27T10:11:28.931Z,1013.1
2017-06-27T10:12:28.030Z,1013.1
2017-06-27T10:13:27.746Z,1013.2
2017-06-27T10:14:27.028Z,1013.1
2017-06-27T10:14:57.544Z,1013.1
2017-06-27T10:15:28.053Z,1013.1
2017-06-27T10:15:58.583Z,1013.1
2017-06-27T10:17:25.278Z,1013.1
2017-06-27T10:18:24.249Z,1013.1
2017-06-27T10:19:23.454Z,1013.1
2017-06-27T10:20:23.173Z,1013.1
2017-06-27T10:21:22.378Z,1013.1
2017-06-27T10:22:21.598Z,1013.1
2017-06-27T10:23:21.071Z,1013.1
2017-06-27T10:24:20.301Z,1013.1
2017-06-27T10:25:19.510Z,1012.9
2017-06-27T10:26:19.236Z,1012.9
2017-06-27T10:27:18.432Z,1012.9
2017-06-27T10:28:17.668Z,1012.9
2017-06-27T10:29:17.143Z,1012.9
2017-06-27T10:31:15.745Z,1012.8
2017-06-27T10:32:14.959Z,1012.9
2017-06-27T10:33:14.437Z,1012.9
2017-06-27T10:34:14.035Z,1012.9
2017-06-27T10:35:13.512Z,1012.8
2017-06-27T10:36:12.728Z,1012.8
2017-06-27T10:37:11.941Z,1012.8
2017-06-27T10:38:11.059Z,1012.8
2017-06-27T10:39:10.778Z,1012.8
2017-06-27T10:40:09.991Z,1012.8
2017-06-27T10:41:09.485Z,1012.8
2017-06-27T10:42:08.708Z,1012.8
2017-06-27T10:43:07.905Z,1012.8
2017-06-27T10:44:07.121Z,1012.7
2017-06-27T10:45:06.835Z,1012.7
2017-06-27T10:46:05.937Z,1012.7
2017-06-27T10:47:05.782Z,1012.7
2017-06-27T10:48:04.874Z,1012.7
2017-06-27T10:50:03.558Z,1012.7
2017-06-27T10:51:02.761Z,1012.8
2017-06-27T10:52:02.358Z,1012.7
2017-06-27T10:53:01.762Z,1012.7
2017-06-27T10:54:00.736Z,1012.6
2017-06-27T10:55:00.447Z,1012.6
2017-06-27T10:55:30.958Z,1012.6
2017-06-27T10:56:01.358Z,1012.5
2017-06-27T10:56:31.761Z,1012.5
2017-06-27T10:57:58.539Z,1012.5
2017-06-27T10:58:58.014Z,1012.6
2017-06-27T10:59:57.226Z,1012.6
2017-06-27T11:00:56.493Z,1012.5
2017-06-27T11:01:55.696Z,1012.6
2017-06-27T11:02:54.913Z,1012.6
2017-06-27T11:03:54.514Z,1012.5
2017-06-27T11:04:53.973Z,1012.5
2017-06-27T11:05:53.180Z,1012.5
2017-06-27T11:06:52.391Z,1012.5
2017-06-27T11:07:51.996Z,1012.5
2017-06-27T11:08:51.212Z,1012.5
2017-06-27T11:09:50.818Z,1012.4
2017-06-27T11:10:50.223Z,1012.4
2017-06-27T11:11:49.423Z,1012.4
2017-06-27T11:12:48.639Z,1012.5
2017-06-27T11:13:48.358Z,1012.4
2017-06-27T11:14:47.570Z,1012.4
2017-06-27T11:15:46.848Z,1012.4
2017-06-27T11:17:45.717Z,1012.4
2017-06-27T11:18:44.816Z,1012.4
2017-06-27T11:19:44.627Z,1012.3
2017-06-27T11:20:43.685Z,1012.4
2017-06-27T11:21:43.395Z,1012.3
2017-06-27T11:22:42.498Z,1012.4
2017-06-27T11:23:41.977Z,1012.4
2017-06-27T11:24:41.076Z,1012.3
2017-06-27T11:25:40.780Z,1012.3
2017-06-27T11:26:39.999Z,1012.3
2017-06-27T11:27:10.532Z,1012.3
2017-06-27T11:27:40.942Z,1012.3
2017-06-27T11:28:38.644Z,1012.3
2017-06-27T11:30:38.014Z,1012.3
2017-06-27T11:31:37.106Z,1012.3
2017-06-27T11:32:36.251Z,1012.3
2017-06-27T11:33:35.849Z,1012.3
2017-06-27T11:34:34.941Z,1012.3
2017-06-27T11:35:34.642Z,1012.3
2017-06-27T11:36:34.013Z,1012.3
2017-06-27T11:37:33.107Z,1012.2
2017-06-27T11:39:32.092Z,1012.1
2017-06-27T11:40:31.308Z,1012.2
2017-06-27T11:41:30.899Z,1012.2
2017-06-27T11:42:30.232Z,1012.2
2017-06-27T11:43:29.336Z,1012.2
2017-06-27T11:44:28.940Z,1012.1
2017-06-27T11:45:28.154Z,1012.1
2017-06-27T11:46:27.365Z,1012.1
2017-06-27T11:47:26.998Z,1012.1
2017-06-27T11:48:26.473Z,1012.2
2017-06-27T11:49:25.700Z,1012.1
2017-06-27T11:50:25.291Z,1012.1
2017-06-27T11:51:24.508Z,1012.1
2017-06-27T11:52:23.991Z,1012.1
2017-06-27T11:52:54.661Z,1012.1
2017-06-27T11:54:22.820Z,1012.1
2017-06-27T11:55:22.042Z,1012.1
2017-06-27T11:56:21.759Z,1012.1
2017-06-27T11:57:20.862Z,1012.1
2017-06-27T11:58:20.570Z,1012
2017-06-27T11:59:19.702Z,1012
2017-06-27T12:00:19.287Z,1012
2017-06-27T12:01:18.504Z,1012
2017-06-27T12:02:18.131Z,1012
2017-06-27T12:03:17.367Z,1012
2017-06-27T12:04:16.958Z,1012
2017-06-27T12:05:15.919Z,1011.9
2017-06-27T12:06:15.774Z,1011.9
2017-06-27T12:07:14.988Z,1012
2017-06-27T12:08:14.198Z,1011.9
2017-06-27T12:09:13.658Z,1012
2017-06-27T12:10:13.267Z,1011.9
2017-06-27T12:11:12.487Z,1011.9
2017-06-27T12:12:11.961Z,1011.9
2017-06-27T12:13:11.170Z,1012
2017-06-27T12:14:10.900Z,1012
2017-06-27T12:15:10.115Z,1011.9
2017-06-27T12:16:09.332Z,1012
2017-06-27T12:17:09.052Z,1012
2017-06-27T12:18:08.447Z,1011.9
2017-06-27T12:19:07.544Z,1011.9
2017-06-27T12:20:07.139Z,1011.9
2017-06-27T12:21:06.352Z,1011.9
2017-06-27T12:22:06.067Z,1011.8
2017-06-27T12:23:05.278Z,1011.8
2017-06-27T12:24:04.801Z,1011.8
2017-06-27T12:25:04.109Z,1011.8
2017-06-27T12:26:03.316Z,1011.9
2017-06-27T12:27:02.929Z,1011.8
2017-06-27T12:28:02.532Z,1011.8
2017-06-27T12:29:01.744Z,1011.8
2017-06-27T12:30:01.201Z,1011.7
2017-06-27T12:31:00.574Z,1011.8
2017-06-27T12:32:00.059Z,1011.7
2017-06-27T12:32:59.268Z,1011.8
2017-06-27T12:33:58.994Z,1011.7
2017-06-27T12:34:58.198Z,1011.7
2017-06-27T12:35:57.660Z,1011.7
2017-06-27T12:36:56.865Z,1011.7
2017-06-27T12:37:56.471Z,1011.7